Time;durP1;ratioP1;P1;durP2;ratioP2;P2;SDS_P1;SDS_P2;PMS_P1;PMS_P2;Temp;Humidity;BMP_temperature;BMP_pressure;BME280_temperature;BME280_humidity;BME280_pressure;Samples;Min_cycle;Max_cycle;Signal;HPM_P1;HPM_P2
2021/09/05 00:00:25;;;;;;;17.35;10.32;;;7.70;99.90;;;;;;6124634;23;20041;-76
2021/09/05 00:02:51;;;;;;;17.45;9.50;;;7.60;99.90;;;;;;6123612;23;20022;-76
2021/09/05 00:05:17;;;;;;;15.05;9.38;;;7.50;99.90;;;;;;6124849;23;20064;-76
2021/09/05 00:07:42;;;;;;;13.95;9.98;;;7.40;99.90;;;;;;6124818;23;20002;-76
2021/09/05 00:10:08;;;;;;;13.77;9.50;;;7.50;99.90;;;;;;6124754;23;20036;-77
2021/09/05 00:12:35;;;;;;;14.35;9.57;;;7.40;99.90;;;;;;6125504;23;20013;-76
2021/09/05 00:15:01;;;;;;;14.15;9.10;;;7.40;99.90;;;;;;6127217;23;20367;-75
2021/09/05 00:17:28;;;;;;;17.02;10.13;;;7.40;99.90;;;;;;6126589;23;20037;-76
2021/09/05 00:19:54;;;;;;;17.58;11.23;;;7.40;99.90;;;;;;6127374;23;20026;-76
2021/09/05 00:22:19;;;;;;;18.92;10.85;;;7.40;99.90;;;;;;6126231;23;20136;-76
2021/09/05 00:24:45;;;;;;;14.80;10.07;;;7.40;99.90;;;;;;6127079;23;20314;-76
2021/09/05 00:27:11;;;;;;;15.00;10.60;;;7.40;99.90;;;;;;6126570;23;20334;-76
2021/09/05 00:29:36;;;;;;;19.10;10.43;;;7.30;99.90;;;;;;6125560;23;20073;-75
2021/09/05 00:32:02;;;;;;;17.10;10.00;;;7.30;99.90;;;;;;6126789;23;20036;-76
2021/09/05 00:34:28;;;;;;;16.65;11.35;;;7.30;99.90;;;;;;6126979;23;20031;-76
2021/09/05 00:36:53;;;;;;;20.02;10.90;;;7.30;99.90;;;;;;6125915;23;20006;-76
2021/09/05 00:39:19;;;;;;;17.55;10.75;;;7.30;99.90;;;;;;6126383;23;20013;-76
2021/09/05 00:41:45;;;;;;;17.83;12.02;;;7.30;99.90;;;;;;6126777;23;21047;-76
2021/09/05 00:44:11;;;;;;;20.27;11.35;;;7.30;99.90;;;;;;6126329;23;20388;-76
2021/09/05 00:46:38;;;;;;;18.15;12.23;;;7.20;99.90;;;;;;6125207;23;20342;-75
2021/09/05 00:49:05;;;;;;;18.60;11.43;;;7.30;99.90;;;;;;6125983;23;20326;-77
2021/09/05 00:51:35;;;;;;;16.85;11.43;;;7.30;99.90;;;;;;6126023;23;20000;-76
2021/09/05 00:54:04;;;;;;;17.05;10.80;;;7.30;99.90;;;;;;6125981;23;20422;-76
2021/09/05 00:56:35;;;;;;;16.15;11.95;;;7.40;99.90;;;;;;6126389;23;20005;-76
2021/09/05 00:59:05;;;;;;;20.35;12.38;;;7.40;99.90;;;;;;6126501;23;20013;-76
2021/09/05 01:01:31;;;;;;;18.30;11.63;;;7.40;99.90;;;;;;6126741;23;20048;-76
2021/09/05 01:03:57;;;;;;;17.23;11.77;;;7.40;99.90;;;;;;6127141;23;20021;-76
2021/09/05 01:06:24;;;;;;;21.30;12.90;;;7.40;99.90;;;;;;6126569;23;20006;-76
2021/09/05 01:08:50;;;;;;;22.58;13.10;;;7.40;99.90;;;;;;6125897;23;20012;-76
2021/09/05 01:11:16;;;;;;;17.15;11.88;;;7.30;99.90;;;;;;6126245;23;20081;-76
2021/09/05 01:13:42;;;;;;;20.92;12.48;;;7.20;99.90;;;;;;6126652;23;20054;-76
2021/09/05 01:16:30;;;;;;;17.02;12.15;;;7.10;99.90;;;;;;6125909;23;20330;-76
2021/09/05 01:19:04;;;;;;;20.42;12.07;;;7.10;99.90;;;;;;6126232;23;20006;-76
2021/09/05 01:21:30;;;;;;;18.90;12.65;;;7.10;99.90;;;;;;6125848;23;20002;-75
2021/09/05 01:23:56;;;;;;;15.52;11.93;;;7.10;99.90;;;;;;6126208;23;20025;-76
2021/09/05 01:26:25;;;;;;;17.30;11.45;;;7.10;99.90;;;;;;6125811;23;20369;-76
2021/09/05 01:28:53;;;;;;;17.25;10.88;;;7.10;99.90;;;;;;6126403;23;20437;-76
2021/09/05 01:31:19;;;;;;;19.00;11.07;;;7.00;99.90;;;;;;6100356;23;20010;-76
2021/09/05 01:33:45;;;;;;;18.80;11.88;;;7.00;99.90;;;;;;6125979;23;20022;-76
2021/09/05 01:36:10;;;;;;;19.02;11.93;;;6.90;99.90;;;;;;6125111;23;20517;-76
2021/09/05 01:38:36;;;;;;;18.80;11.65;;;6.90;99.90;;;;;;6124797;23;20010;-76
2021/09/05 01:41:02;;;;;;;16.40;11.77;;;6.90;99.90;;;;;;6126086;23;20413;-75
2021/09/05 01:43:28;;;;;;;20.10;11.77;;;6.90;99.90;;;;;;6126210;23;20089;-76
2021/09/05 01:45:54;;;;;;;18.08;11.20;;;6.80;99.90;;;;;;6125656;23;20006;-76
2021/09/05 01:48:20;;;;;;;20.35;11.77;;;6.80;99.90;;;;;;6099302;23;20096;-76
2021/09/05 01:50:45;;;;;;;16.92;11.40;;;6.80;99.90;;;;;;6126113;23;20013;-77
2021/09/05 01:53:11;;;;;;;18.30;11.05;;;6.80;99.90;;;;;;6126169;23;20040;-76
2021/09/05 01:55:36;;;;;;;18.88;11.65;;;6.80;99.90;;;;;;6100453;23;20036;-76
2021/09/05 01:58:02;;;;;;;19.83;11.30;;;6.80;99.90;;;;;;6125169;23;20002;-76
2021/09/05 02:00:28;;;;;;;18.55;11.27;;;6.80;99.90;;;;;;6124645;23;20006;-76
2021/09/05 02:02:57;;;;;;;17.58;10.95;;;6.80;99.90;;;;;;6099322;23;20026;-76
2021/09/05 02:05:22;;;;;;;17.10;11.48;;;6.80;99.90;;;;;;6126050;23;20381;-76
2021/09/05 02:07:48;;;;;;;19.65;12.15;;;6.80;99.90;;;;;;6124911;23;20006;-76
2021/09/05 02:10:13;;;;;;;17.92;11.32;;;6.90;99.90;;;;;;6099940;23;20416;-75
2021/09/05 02:12:39;;;;;;;18.88;10.77;;;6.90;99.90;;;;;;6125057;23;20018;-76
2021/09/05 02:15:06;;;;;;;17.58;11.13;;;6.90;99.90;;;;;;6125224;23;20341;-75
2021/09/05 02:17:31;;;;;;;16.80;9.60;;;6.80;99.90;;;;;;6125772;23;20481;-76
2021/09/05 02:19:57;;;;;;;16.25;10.38;;;6.80;99.90;;;;;;6124227;23;20030;-76
2021/09/05 02:22:23;;;;;;;15.60;10.10;;;6.80;99.90;;;;;;6123943;23;20061;-75
2021/09/05 02:24:48;;;;;;;15.45;11.23;;;6.80;99.90;;;;;;6124977;23;20329;-76
2021/09/05 02:27:14;;;;;;;16.30;10.52;;;6.80;99.90;;;;;;6125218;23;20010;-76
2021/09/05 02:29:40;;;;;;;16.00;10.25;;;6.70;99.90;;;;;;6125385;23;20437;-76
2021/09/05 02:32:06;;;;;;;15.27;10.48;;;6.70;99.90;;;;;;6124352;23;20061;-76
2021/09/05 02:34:31;;;;;;;18.20;10.65;;;6.60;99.90;;;;;;6124940;23;20013;-76
2021/09/05 02:36:57;;;;;;;15.00;10.80;;;6.60;99.90;;;;;;6125474;23;20007;-76
2021/09/05 02:39:23;;;;;;;14.02;10.40;;;6.60;99.90;;;;;;6099096;23;20029;-76
2021/09/05 02:41:49;;;;;;;17.55;10.80;;;6.50;99.90;;;;;;6123397;23;20009;-76
2021/09/05 02:44:14;;;;;;;19.15;11.65;;;6.60;99.90;;;;;;6098523;23;20094;-76
2021/09/05 02:46:40;;;;;;;14.20;9.60;;;6.60;99.90;;;;;;6124947;23;20064;-76
2021/09/05 02:49:06;;;;;;;17.73;11.18;;;6.70;99.90;;;;;;6099071;23;20018;-76
2021/09/05 02:51:32;;;;;;;17.92;10.52;;;6.70;99.90;;;;;;6124997;23;20389;-76
2021/09/05 02:53:57;;;;;;;19.13;12.27;;;6.70;99.90;;;;;;6125178;23;20037;-76
2021/09/05 02:56:23;;;;;;;18.60;11.15;;;6.70;99.90;;;;;;6124654;23;20002;-76
2021/09/05 02:58:48;;;;;;;16.92;10.15;;;6.60;99.90;;;;;;6125573;23;20009;-76
2021/09/05 03:01:14;;;;;;;15.93;10.35;;;6.60;99.90;;;;;;6125443;23;20444;-76
2021/09/05 03:03:40;;;;;;;14.30;10.07;;;6.60;99.90;;;;;;6125184;23;20024;-76
2021/09/05 03:06:05;;;;;;;15.07;11.07;;;6.70;99.90;;;;;;6124577;23;20069;-76
2021/09/05 03:08:31;;;;;;;16.30;10.88;;;6.60;99.90;;;;;;6124774;23;20010;-76
2021/09/05 03:10:57;;;;;;;16.48;10.80;;;6.60;99.90;;;;;;6124909;23;20013;-76
2021/09/05 03:13:22;;;;;;;17.38;10.48;;;6.70;99.90;;;;;;6124019;23;20429;-76
2021/09/05 03:15:48;;;;;;;18.35;10.25;;;6.70;99.90;;;;;;6125438;23;20006;-76
2021/09/05 03:18:14;;;;;;;16.48;10.05;;;6.70;99.90;;;;;;6124890;23;20006;-76
2021/09/05 03:20:39;;;;;;;15.23;10.25;;;6.70;99.90;;;;;;6123915;23;20002;-76
2021/09/05 03:23:05;;;;;;;13.85;9.73;;;6.70;99.90;;;;;;6124340;23;20001;-77
2021/09/05 03:25:31;;;;;;;14.15;9.23;;;6.70;99.90;;;;;;6125595;23;20016;-76
2021/09/05 03:27:56;;;;;;;15.02;10.48;;;6.70;99.90;;;;;;6124649;23;20006;-76
2021/09/05 03:30:22;;;;;;;15.68;9.60;;;6.70;99.90;;;;;;6123265;23;20002;-76
2021/09/05 03:32:48;;;;;;;15.05;9.95;;;6.70;99.90;;;;;;6097456;23;20036;-76
2021/09/05 03:35:13;;;;;;;15.45;10.05;;;6.60;99.90;;;;;;6124443;23;20341;-76
2021/09/05 03:37:39;;;;;;;16.88;10.18;;;6.60;99.90;;;;;;6125517;23;20002;-76
2021/09/05 03:40:05;;;;;;;14.23;9.27;;;6.60;99.90;;;;;;6125142;23;20012;-76
2021/09/05 03:42:31;;;;;;;16.88;10.75;;;6.50;99.90;;;;;;6124340;23;20011;-76
2021/09/05 03:44:57;;;;;;;18.02;9.77;;;6.50;99.90;;;;;;6124543;23;20329;-76
2021/09/05 03:47:24;;;;;;;15.85;9.30;;;6.40;99.90;;;;;;6124971;23;20333;-76
2021/09/05 03:49:50;;;;;;;16.67;10.23;;;6.40;99.90;;;;;;6123807;23;20006;-76
2021/09/05 03:52:16;;;;;;;17.75;10.13;;;6.40;99.90;;;;;;6124786;23;20017;-76
2021/09/05 03:54:42;;;;;;;14.50;9.48;;;6.40;99.90;;;;;;6124697;23;20006;-76
2021/09/05 03:57:07;;;;;;;14.00;9.20;;;6.40;99.90;;;;;;6125052;23;20410;-76
2021/09/05 03:59:33;;;;;;;15.10;10.00;;;6.40;99.90;;;;;;6125169;23;20081;-75
2021/09/05 04:01:59;;;;;;;15.05;9.38;;;6.40;99.90;;;;;;6124903;23;20093;-76
2021/09/05 04:04:24;;;;;;;15.25;9.27;;;6.40;99.90;;;;;;6124447;23;20014;-76
2021/09/05 04:07:00;;;;;;;16.17;9.60;;;6.40;99.90;;;;;;6124757;23;20002;-76
2021/09/05 04:12:11;;;;;;;18.40;9.70;;;6.40;99.90;;;;;;6124870;23;20020;-75
2021/09/05 04:14:37;;;;;;;13.88;9.38;;;6.40;99.90;;;;;;6124945;23;20002;-76
2021/09/05 04:17:03;;;;;;;14.63;9.25;;;6.40;99.90;;;;;;6124532;23;20002;-75
2021/09/05 04:19:28;;;;;;;13.48;8.50;;;6.40;99.90;;;;;;6124260;23;20013;-75
2021/09/05 04:21:54;;;;;;;13.48;8.95;;;6.40;99.90;;;;;;6125153;23;20006;-75
2021/09/05 04:24:21;;;;;;;12.15;8.60;;;6.50;99.90;;;;;;6125061;23;20026;-74
2021/09/05 04:26:47;;;;;;;12.85;8.43;;;6.50;99.90;;;;;;6125169;23;20002;-75
2021/09/05 04:29:12;;;;;;;14.88;9.15;;;6.60;99.90;;;;;;6123923;23;20009;-75
2021/09/05 04:31:38;;;;;;;10.98;7.47;;;6.60;99.90;;;;;;6124654;23;20017;-75
2021/09/05 04:34:04;;;;;;;14.38;8.98;;;6.70;99.90;;;;;;6125300;23;20010;-75
2021/09/05 04:36:29;;;;;;;14.60;8.52;;;6.70;99.90;;;;;;6124642;23;20334;-76
2021/09/05 04:38:55;;;;;;;12.70;8.18;;;6.80;99.90;;;;;;6124668;23;20418;-76
2021/09/05 04:41:21;;;;;;;15.05;8.93;;;6.90;99.90;;;;;;6125167;23;20044;-76
2021/09/05 04:43:46;;;;;;;14.77;8.82;;;7.00;99.90;;;;;;6124478;23;20006;-75
2021/09/05 04:46:12;;;;;;;13.23;8.45;;;7.10;99.90;;;;;;6123919;23;20430;-75
2021/09/05 04:48:37;;;;;;;13.95;8.68;;;7.10;99.90;;;;;;6124281;23;20061;-76
2021/09/05 04:51:03;;;;;;;10.05;7.03;;;7.20;99.90;;;;;;6123950;23;20072;-76
2021/09/05 04:53:30;;;;;;;10.85;7.47;;;7.30;99.90;;;;;;6124492;23;20049;-76
2021/09/05 04:55:55;;;;;;;11.18;7.53;;;7.40;99.90;;;;;;6125353;23;20389;-77
2021/09/05 04:58:21;;;;;;;10.38;7.05;;;7.50;99.90;;;;;;6125419;23;20006;-76
2021/09/05 05:00:47;;;;;;;11.55;6.80;;;7.60;99.90;;;;;;6126141;23;20060;-76
2021/09/05 05:03:12;;;;;;;8.98;6.32;;;7.70;99.90;;;;;;6126150;23;20045;-76
2021/09/05 05:05:39;;;;;;;9.65;6.78;;;7.80;99.90;;;;;;6126203;23;20002;-76
2021/09/05 05:08:04;;;;;;;8.95;5.72;;;7.90;99.90;;;;;;6126651;23;20081;-76
2021/09/05 05:10:30;;;;;;;10.43;6.53;;;8.00;99.90;;;;;;6126648;23;20325;-75
2021/09/05 05:12:56;;;;;;;8.98;5.90;;;8.00;99.90;;;;;;6126345;23;20641;-76
2021/09/05 05:15:21;;;;;;;10.07;6.43;;;8.10;99.90;;;;;;6125787;23;20048;-76
2021/09/05 05:17:47;;;;;;;8.38;6.13;;;8.20;99.90;;;;;;6099978;23;20010;-76
2021/09/05 05:20:13;;;;;;;9.48;6.43;;;8.20;99.90;;;;;;6125250;23;20033;-76
2021/09/05 05:22:39;;;;;;;10.38;6.35;;;8.40;99.90;;;;;;6126139;23;20013;-76
2021/09/05 05:25:06;;;;;;;9.55;6.13;;;8.40;99.90;;;;;;6124889;23;20009;-76
2021/09/05 05:27:31;;;;;;;12.05;5.40;;;8.50;99.90;;;;;;6125697;23;20010;-76
2021/09/05 05:29:57;;;;;;;13.27;5.90;;;8.70;99.90;;;;;;6125811;23;20402;-76
2021/09/05 05:32:23;;;;;;;9.40;5.97;;;8.70;99.90;;;;;;6125309;23;20014;-76
2021/09/05 05:34:48;;;;;;;8.23;4.93;;;8.90;99.90;;;;;;6124648;23;20009;-76
2021/09/05 05:37:14;;;;;;;8.15;4.70;;;9.00;99.90;;;;;;6125299;23;20009;-76
2021/09/05 05:39:40;;;;;;;7.65;4.97;;;9.00;99.90;;;;;;6125217;23;20006;-76
2021/09/05 05:42:06;;;;;;;9.82;5.15;;;9.10;99.90;;;;;;6125590;23;20040;-76
2021/09/05 05:44:32;;;;;;;7.32;4.50;;;9.20;99.90;;;;;;6098385;23;20018;-76
2021/09/05 05:46:58;;;;;;;8.20;4.00;;;9.30;99.90;;;;;;6125433;23;20012;-76
2021/09/05 05:49:24;;;;;;;5.93;3.88;;;9.40;99.90;;;;;;6124979;23;20033;-75
2021/09/05 05:51:49;;;;;;;7.35;4.25;;;9.60;99.90;;;;;;6125159;23;20009;-76
2021/09/05 05:54:15;;;;;;;10.55;3.78;;;9.70;99.90;;;;;;6125259;23;20013;-76
2021/09/05 05:56:45;;;;;;;5.53;3.70;;;9.80;99.90;;;;;;6125586;23;20010;-76
2021/09/05 05:59:11;;;;;;;5.45;3.47;;;10.00;99.90;;;;;;6124896;23;20033;-76
2021/09/05 06:01:41;;;;;;;5.72;3.30;;;10.10;99.90;;;;;;6123814;23;20009;-76
2021/09/05 06:04:11;;;;;;;5.72;3.33;;;10.30;99.90;;;;;;6099048;23;20014;-76
2021/09/05 06:06:39;;;;;;;4.50;2.60;;;10.40;99.90;;;;;;6124655;23;20437;-76
2021/09/05 06:09:05;;;;;;;5.63;3.15;;;10.50;99.90;;;;;;6124788;23;20011;-76
2021/09/05 06:11:30;;;;;;;6.25;3.60;;;10.70;99.90;;;;;;6123610;23;20038;-77
2021/09/05 06:13:56;;;;;;;6.50;2.97;;;10.80;99.90;;;;;;6125233;23;20018;-76
2021/09/05 06:16:22;;;;;;;4.53;2.50;;;10.80;99.90;;;;;;6098657;23;20002;-77
2021/09/05 06:18:48;;;;;;;6.10;2.40;;;10.90;99.90;;;;;;6125286;23;20049;-76
2021/09/05 06:21:13;;;;;;;3.90;2.10;;;10.90;99.90;;;;;;6099125;23;20017;-76
2021/09/05 06:23:40;;;;;;;4.07;2.22;;;11.10;99.90;;;;;;6124787;23;20002;-76
2021/09/05 06:26:06;;;;;;;3.95;2.08;;;11.20;99.90;;;;;;6124627;23;20037;-77
2021/09/05 06:28:32;;;;;;;3.92;2.55;;;11.30;99.90;;;;;;6124758;23;20006;-76
2021/09/05 06:30:58;;;;;;;4.03;1.90;;;11.40;99.90;;;;;;6124639;23;20084;-75
2021/09/05 06:33:24;;;;;;;3.83;2.10;;;11.50;99.90;;;;;;6124700;23;20013;-75
2021/09/05 06:35:50;;;;;;;2.67;1.50;;;11.50;99.90;;;;;;6124319;23;20014;-76
2021/09/05 06:38:16;;;;;;;4.13;1.95;;;11.60;99.90;;;;;;6125104;23;20002;-76
2021/09/05 06:40:41;;;;;;;2.53;1.42;;;11.70;99.90;;;;;;6125159;23;20011;-75
2021/09/05 06:43:07;;;;;;;3.92;1.70;;;11.70;99.90;;;;;;6124053;23;20029;-76
2021/09/05 06:45:32;;;;;;;3.55;1.73;;;11.80;99.90;;;;;;6124542;23;20009;-75
2021/09/05 06:47:58;;;;;;;4.88;1.92;;;11.80;99.90;;;;;;6124212;23;20006;-76
2021/09/05 06:50:24;;;;;;;6.28;1.90;;;11.90;99.90;;;;;;6124937;23;20036;-76
2021/09/05 06:52:50;;;;;;;3.67;1.67;;;11.90;99.90;;;;;;6125087;23;20010;-75
2021/09/05 06:55:16;;;;;;;4.45;2.28;;;12.00;99.90;;;;;;6098277;23;20456;-75
2021/09/05 06:57:41;;;;;;;5.60;2.40;;;12.00;99.90;;;;;;6123900;23;20029;-76
2021/09/05 07:00:08;;;;;;;5.50;2.15;;;12.10;99.90;;;;;;6124477;23;20065;-77
2021/09/05 07:02:33;;;;;;;4.95;2.05;;;12.20;99.90;;;;;;6097806;23;20006;-76
2021/09/05 07:04:59;;;;;;;4.82;2.00;;;12.20;99.90;;;;;;6125410;23;20012;-75
2021/09/05 07:07:25;;;;;;;3.92;2.05;;;12.40;99.90;;;;;;6098434;23;20040;-76
2021/09/05 07:09:50;;;;;;;3.80;1.70;;;12.40;99.90;;;;;;6124277;23;20009;-77
2021/09/05 07:12:16;;;;;;;2.08;1.27;;;12.50;99.90;;;;;;6097984;23;20010;-75
2021/09/05 07:14:42;;;;;;;2.42;1.27;;;12.50;99.90;;;;;;6124558;23;20001;-76
2021/09/05 07:17:07;;;;;;;2.72;1.63;;;12.70;99.90;;;;;;6124624;23;20030;-76
2021/09/05 07:19:33;;;;;;;2.63;1.17;;;12.80;99.90;;;;;;6123413;23;19998;-76
2021/09/05 07:21:59;;;;;;;1.92;1.10;;;13.00;99.90;;;;;;6124220;23;20366;-76
2021/09/05 07:24:24;;;;;;;3.10;1.45;;;13.10;99.90;;;;;;6123437;23;20002;-76
2021/09/05 07:26:50;;;;;;;1.77;0.80;;;13.10;99.90;;;;;;6124377;23;20002;-76
2021/09/05 07:29:17;;;;;;;2.35;0.90;;;13.20;99.90;;;;;;6124846;23;20085;-76
2021/09/05 07:31:43;;;;;;;2.30;0.95;;;13.30;99.90;;;;;;6123945;23;20507;-76
2021/09/05 07:34:09;;;;;;;2.08;1.45;;;13.50;99.90;;;;;;6124225;23;20014;-76
2021/09/05 07:36:36;;;;;;;2.40;1.05;;;13.50;99.90;;;;;;6124216;23;20006;-76
2021/09/05 07:39:02;;;;;;;1.63;0.90;;;13.50;99.90;;;;;;6123991;23;20017;-76
2021/09/05 07:41:28;;;;;;;3.45;1.70;;;13.60;99.90;;;;;;6123750;23;20017;-77
2021/09/05 07:43:53;;;;;;;2.13;1.05;;;13.50;99.90;;;;;;6123111;23;20073;-76
2021/09/05 07:46:19;;;;;;;1.48;0.90;;;13.60;99.90;;;;;;6122788;23;20049;-76
2021/09/05 07:48:45;;;;;;;2.17;0.88;;;13.50;99.90;;;;;;6124886;23;20002;-75
2021/09/05 07:51:10;;;;;;;1.25;0.60;;;13.70;99.90;;;;;;6124513;23;20035;-76
2021/09/05 07:53:36;;;;;;;1.55;0.77;;;13.70;99.90;;;;;;6124889;23;20013;-76
2021/09/05 07:56:02;;;;;;;1.75;0.75;;;13.80;99.90;;;;;;6124645;23;20012;-75
2021/09/05 07:58:27;;;;;;;4.93;0.88;;;13.90;99.90;;;;;;6124257;23;20006;-76
2021/09/05 08:00:54;;;;;;;1.58;0.70;;;14.10;99.90;;;;;;6124510;23;20002;-77
2021/09/05 08:03:20;;;;;;;1.30;0.50;;;14.20;99.90;;;;;;6124988;23;20018;-74
2021/09/05 08:05:46;;;;;;;0.82;0.60;;;14.30;99.90;;;;;;6124939;23;20391;-75
2021/09/05 08:08:11;;;;;;;3.75;0.65;;;14.40;99.90;;;;;;6124509;23;20005;-76
2021/09/05 08:10:39;;;;;;;2.10;0.50;;;14.30;99.90;;;;;;6125086;23;20033;-77
2021/09/05 08:13:05;;;;;;;1.52;0.60;;;14.30;99.90;;;;;;6124606;23;20022;-77
2021/09/05 08:15:31;;;;;;;6.95;1.70;;;14.30;99.90;;;;;;6124953;23;20002;-77
2021/09/05 08:17:56;;;;;;;1.58;0.50;;;14.30;99.90;;;;;;6124331;23;20017;-73
2021/09/05 08:20:22;;;;;;;1.85;0.63;;;14.50;99.90;;;;;;6124410;23;20013;-75
2021/09/05 08:22:48;;;;;;;2.55;0.85;;;14.50;99.90;;;;;;6124485;23;20006;-76
2021/09/05 08:25:14;;;;;;;1.20;0.68;;;14.60;99.90;;;;;;6124910;23;20030;-73
2021/09/05 08:27:40;;;;;;;2.35;0.43;;;14.60;99.90;;;;;;6124793;23;20434;-76
2021/09/05 08:30:06;;;;;;;2.60;0.60;;;14.60;99.90;;;;;;6123594;23;20006;-76
2021/09/05 08:32:32;;;;;;;0.93;0.35;;;14.70;99.90;;;;;;6124086;23;20021;-76
2021/09/05 08:34:58;;;;;;;1.10;0.68;;;14.80;99.90;;;;;;6127612;23;20329;-76
2021/09/05 08:37:23;;;;;;;2.60;0.60;;;14.70;99.90;;;;;;6126626;23;20064;-76
2021/09/05 08:39:50;;;;;;;1.08;0.40;;;14.80;99.90;;;;;;6125924;23;20013;-76
2021/09/05 08:42:16;;;;;;;2.28;0.90;;;14.80;99.90;;;;;;6126742;23;20353;-80
2021/09/05 08:44:43;;;;;;;1.08;0.47;;;14.90;99.90;;;;;;6127177;23;20028;-75
2021/09/05 08:47:09;;;;;;;1.30;0.47;;;14.90;98.30;;;;;;6128585;23;20441;-76
2021/09/05 08:49:36;;;;;;;0.80;0.40;;;15.00;98.60;;;;;;6126248;23;20002;-75
2021/09/05 08:52:04;;;;;;;0.55;0.32;;;15.20;96.70;;;;;;6126331;23;20429;-75
2021/09/05 08:54:31;;;;;;;1.70;0.45;;;15.30;98.30;;;;;;6126317;23;20021;-75
2021/09/05 08:56:57;;;;;;;2.20;0.50;;;15.40;97.50;;;;;;6126437;23;20085;-75
2021/09/05 08:59:23;;;;;;;1.05;0.38;;;15.40;98.20;;;;;;6126495;23;20009;-76
2021/09/05 09:02:01;;;;;;;1.33;0.52;;;15.40;99.10;;;;;;6126337;23;20333;-75
2021/09/05 09:04:35;;;;;;;1.40;0.50;;;15.40;97.00;;;;;;6099698;23;20037;-75
2021/09/05 09:07:11;;;;;;;1.33;0.40;;;15.60;99.90;;;;;;6125379;23;20009;-76
2021/09/05 09:09:37;;;;;;;0.77;0.40;;;15.80;96.90;;;;;;6126046;23;20025;-75
2021/09/05 09:12:03;;;;;;;0.68;0.40;;;15.60;94.30;;;;;;6125428;23;20006;-76
2021/09/05 09:15:00;;;;;;;3.85;0.50;;;15.60;95.30;;;;;;6124771;23;20014;-76
2021/09/05 09:17:36;;;;;;;1.38;0.52;;;15.60;97.00;;;;;;6101406;23;20010;-76
2021/09/05 09:20:02;;;;;;;3.85;0.85;;;15.90;98.90;;;;;;6099765;23;20029;-76
2021/09/05 09:22:28;;;;;;;2.15;0.70;;;16.00;97.60;;;;;;6124787;23;20002;-74
2021/09/05 09:24:54;;;;;;;0.93;0.40;;;16.20;98.50;;;;;;6100646;23;20500;-76
2021/09/05 09:27:20;;;;;;;1.85;0.80;;;16.20;94.20;;;;;;6099855;23;20064;-76
2021/09/05 09:29:46;;;;;;;1.13;0.30;;;16.30;90.70;;;;;;6126607;23;20013;-76
2021/09/05 09:32:21;;;;;;;0.98;0.47;;;16.20;88.20;;;;;;6125837;23;20087;-76
2021/09/05 09:34:48;;;;;;;1.70;0.52;;;16.20;90.60;;;;;;6127035;23;20006;-76
2021/09/05 09:37:19;;;;;;;1.38;0.45;;;16.30;91.40;;;;;;6126280;23;20006;-76
2021/09/05 09:39:49;;;;;;;1.48;0.50;;;16.30;90.70;;;;;;6098891;23;20006;-75
2021/09/05 09:42:38;;;;;;;2.00;0.38;;;16.50;91.40;;;;;;6125411;23;20006;-76
2021/09/05 09:45:09;;;;;;;0.95;0.40;;;16.40;91.10;;;;;;6124758;23;20002;-75
2021/09/05 09:47:43;;;;;;;1.63;0.52;;;16.40;92.30;;;;;;6124884;23;20037;-76
2021/09/05 09:50:10;;;;;;;7.85;4.13;;;16.20;90.80;;;;;;6125903;23;20033;-76
2021/09/05 09:52:36;;;;;;;1.58;0.73;;;16.00;89.10;;;;;;6124963;23;20021;-75
2021/09/05 09:55:03;;;;;;;0.82;0.30;;;15.80;90.00;;;;;;6125469;23;20442;-75
2021/09/05 09:57:28;;;;;;;1.42;0.50;;;16.00;89.70;;;;;;6124841;23;20457;-76
2021/09/05 09:59:54;;;;;;;2.05;0.50;;;16.20;89.80;;;;;;6126834;23;20056;-76
2021/09/05 10:02:23;;;;;;;1.85;0.80;;;16.40;90.20;;;;;;6124635;23;20073;-75
2021/09/05 10:04:51;;;;;;;2.15;0.55;;;16.50;86.30;;;;;;6124817;23;20018;-76
2021/09/05 10:07:18;;;;;;;1.23;0.50;;;16.60;90.50;;;;;;6123597;23;20009;-75
2021/09/05 10:09:47;;;;;;;2.10;0.65;;;16.40;90.40;;;;;;6121394;23;20480;-75
2021/09/05 10:12:14;;;;;;;1.40;0.57;;;16.20;91.00;;;;;;6123607;23;20009;-76
2021/09/05 10:14:40;;;;;;;0.88;0.50;;;16.00;91.90;;;;;;6126547;23;20026;-75
2021/09/05 10:17:07;;;;;;;1.63;0.60;;;15.80;91.70;;;;;;6124439;23;20123;-75
2021/09/05 10:19:40;;;;;;;1.40;0.60;;;15.70;91.40;;;;;;6126386;23;20006;-75
2021/09/05 10:22:06;;;;;;;1.65;0.60;;;15.80;92.10;;;;;;6124550;23;20266;-76
2021/09/05 10:24:48;;;;;;;2.28;0.70;;;16.00;87.60;;;;;;6122575;23;20009;-76
2021/09/05 10:27:14;;;;;;;0.82;0.40;;;16.30;92.20;;;;;;6125589;23;20006;-76
2021/09/05 10:30:19;;;;;;;1.17;0.60;;;16.50;89.70;;;;;;6124226;23;20005;-75
2021/09/05 10:33:00;;;;;;;1.48;0.60;;;16.70;87.90;;;;;;6123808;23;20075;-76
2021/09/05 10:35:29;;;;;;;2.47;0.57;;;17.00;86.60;;;;;;6125462;23;20010;-76
2021/09/05 10:38:10;;;;;;;1.80;0.73;;;17.10;90.00;;;;;;6124780;23;20458;-75
2021/09/05 10:40:46;;;;;;;1.27;0.60;;;16.90;87.40;;;;;;6125430;23;20016;-75
2021/09/05 10:43:13;;;;;;;3.67;0.80;;;16.50;88.70;;;;;;6097387;23;20006;-75
2021/09/05 10:45:41;;;;;;;1.90;0.77;;;16.40;91.30;;;;;;6123685;23;20006;-75
2021/09/05 10:48:36;;;;;;;2.25;0.70;;;16.10;92.00;;;;;;6122517;23;20430;-75
2021/09/05 10:51:09;;;;;;;2.55;0.50;;;16.00;92.50;;;;;;6005256;23;20011;-75
2021/09/05 10:53:37;;;;;;;1.45;0.70;;;15.90;92.30;;;;;;6005677;23;20367;-75
2021/09/05 10:56:10;;;;;;;0.82;0.32;;;15.70;92.10;;;;;;6006034;23;20067;-76
2021/09/05 10:58:51;;;;;;;1.73;0.40;;;15.80;92.20;;;;;;6005376;23;20011;-76
2021/09/05 11:01:20;;;;;;;2.55;0.60;;;15.90;92.30;;;;;;5980251;23;20019;-75
2021/09/05 11:04:11;;;;;;;1.48;0.63;;;16.10;91.80;;;;;;6005832;23;20459;-75
2021/09/05 11:06:46;;;;;;;1.13;0.40;;;16.20;87.00;;;;;;6007940;23;20363;-76
2021/09/05 11:09:18;;;;;;;1.92;0.32;;;16.40;87.60;;;;;;6005558;23;20061;-76
2021/09/05 11:11:52;;;;;;;1.60;0.60;;;16.30;84.70;;;;;;6006704;23;20086;-75
2021/09/05 11:14:18;;;;;;;1.13;0.45;;;16.10;83.30;;;;;;6007273;23;20019;-75
2021/09/05 11:16:44;;;;;;;2.42;0.47;;;15.90;83.90;;;;;;6004730;23;20039;-75
2021/09/05 11:19:19;;;;;;;1.50;0.50;;;15.80;83.10;;;;;;6004807;23;20011;-75
2021/09/05 11:21:45;;;;;;;2.47;0.30;;;15.70;85.30;;;;;;6006255;23;20016;-76
2021/09/05 11:24:13;;;;;;;0.75;0.30;;;15.80;85.90;;;;;;6006451;23;20183;-75
2021/09/05 11:26:58;;;;;;;1.77;0.68;;;15.90;84.20;;;;;;5986439;23;20494;-75
2021/09/05 11:29:25;;;;;;;1.55;0.57;;;16.10;88.00;;;;;;6122839;23;20665;-76
2021/09/05 11:31:50;;;;;;;1.65;0.40;;;16.50;90.10;;;;;;6124276;23;20010;-75
2021/09/05 11:34:16;;;;;;;2.08;0.30;;;16.70;86.10;;;;;;6123688;23;20386;-75
2021/09/05 11:36:45;;;;;;;0.80;0.40;;;16.90;89.30;;;;;;6124880;23;20065;-76
2021/09/05 11:39:11;;;;;;;3.13;0.80;;;17.10;85.00;;;;;;6124858;23;20010;-75
2021/09/05 11:41:36;;;;;;;0.98;0.47;;;17.20;81.00;;;;;;6125397;23;20081;-76
2021/09/05 11:44:02;;;;;;;0.90;0.45;;;17.30;80.20;;;;;;6125079;23;20002;-75
2021/09/05 11:46:28;;;;;;;0.90;0.40;;;17.40;80.20;;;;;;6123543;23;20002;-76
2021/09/05 11:49:00;;;;;;;2.00;0.47;;;17.40;80.00;;;;;;6123678;23;20036;-75
2021/09/05 11:51:26;;;;;;;1.33;0.40;;;17.40;84.90;;;;;;6122688;23;20013;-76
2021/09/05 11:53:59;;;;;;;0.80;0.40;;;17.40;80.90;;;;;;6123450;23;20013;-75
2021/09/05 11:56:26;;;;;;;1.25;0.30;;;17.30;77.50;;;;;;6124355;23;20471;-75
2021/09/05 11:58:51;;;;;;;1.30;0.40;;;17.00;78.40;;;;;;6122523;23;20013;-75
2021/09/05 12:01:17;;;;;;;1.45;0.32;;;16.80;80.50;;;;;;6122932;23;20006;-76
2021/09/05 12:03:44;;;;;;;0.90;0.30;;;16.50;80.40;;;;;;6124757;23;20018;-75
2021/09/05 12:06:11;;;;;;;1.23;0.50;;;16.40;83.40;;;;;;6123742;23;20013;-75
2021/09/05 12:08:38;;;;;;;2.15;0.40;;;16.30;77.80;;;;;;6125506;23;20002;-75
2021/09/05 12:11:07;;;;;;;2.38;0.60;;;16.40;79.60;;;;;;6127055;23;20453;-76
2021/09/05 12:13:56;;;;;;;0.77;0.30;;;16.40;77.80;;;;;;6125124;23;20097;-75
2021/09/05 12:16:30;;;;;;;3.03;0.57;;;16.50;76.90;;;;;;6126554;23;20005;-76
2021/09/05 12:19:07;;;;;;;0.98;0.40;;;16.60;77.00;;;;;;6128039;23;20010;-76
2021/09/05 12:21:38;;;;;;;2.75;0.40;;;16.70;75.80;;;;;;6126977;23;20013;-76
2021/09/05 12:24:12;;;;;;;4.22;0.80;;;16.80;80.60;;;;;;6125723;23;20013;-76
2021/09/05 12:26:38;;;;;;;1.30;0.40;;;17.00;79.00;;;;;;6125523;23;20013;-76
2021/09/05 12:29:04;;;;;;;1.85;0.40;;;17.00;73.90;;;;;;6125597;23;20005;-75
2021/09/05 12:31:41;;;;;;;2.45;0.38;;;17.00;75.90;;;;;;6124063;23;20006;-75
2021/09/05 12:34:06;;;;;;;1.52;0.40;;;17.00;77.20;;;;;;6125538;23;20018;-75
2021/09/05 12:36:32;;;;;;;1.55;0.60;;;16.90;76.80;;;;;;6124937;23;20013;-75
2021/09/05 12:38:59;;;;;;;2.97;0.40;;;16.80;76.00;;;;;;6125299;23;20057;-75
2021/09/05 12:41:26;;;;;;;1.92;0.30;;;16.80;76.20;;;;;;6124931;23;20028;-75
2021/09/05 12:43:59;;;;;;;2.05;0.30;;;16.60;73.30;;;;;;6125588;23;20009;-75
2021/09/05 12:46:39;;;;;;;0.70;0.30;;;16.60;74.20;;;;;;6124512;23;20002;-76
2021/09/05 12:49:12;;;;;;;2.92;0.60;;;16.60;77.00;;;;;;6123116;23;20310;-75